createdAt,value
2018-10-07T00:01:33.803Z,19.00
2018-10-07T00:04:01.995Z,17.83
2018-10-07T00:06:30.258Z,17.90
2018-10-07T00:08:58.518Z,16.30
2018-10-07T00:11:26.739Z,17.67
2018-10-07T00:13:55.067Z,18.70
2018-10-07T00:16:23.267Z,18.60
2018-10-07T00:18:51.451Z,18.37
2018-10-07T00:21:20.009Z,19.73
2018-10-07T00:23:48.192Z,29.80
2018-10-07T00:26:16.614Z,41.33
2018-10-07T00:28:44.954Z,77.63
2018-10-07T00:31:13.166Z,50.60
2018-10-07T00:33:41.387Z,45.83
2018-10-07T00:36:09.728Z,34.57
2018-10-07T00:38:38.023Z,24.83
2018-10-07T00:41:06.353Z,22.43
2018-10-07T00:43:34.698Z,21.37
2018-10-07T00:46:02.998Z,21.90
2018-10-07T00:48:31.297Z,19.30
2018-10-07T00:50:59.645Z,20.00
2018-10-07T00:53:27.998Z,21.67
2018-10-07T00:55:56.236Z,20.63
2018-10-07T00:58:24.620Z,21.50
2018-10-07T01:00:52.837Z,20.60
2018-10-07T01:03:21.163Z,19.53
2018-10-07T01:05:49.419Z,19.30
2018-10-07T01:08:17.679Z,18.60
2018-10-07T01:10:45.884Z,18.17
2018-10-07T01:13:14.108Z,17.83
2018-10-07T01:15:42.495Z,18.40
2018-10-07T01:18:10.682Z,17.83
2018-10-07T01:20:38.997Z,17.47
2018-10-07T01:23:07.302Z,17.07
2018-10-07T01:25:35.693Z,18.00
2018-10-07T01:28:04.079Z,18.13
2018-10-07T01:30:32.401Z,18.00
2018-10-07T01:33:00.634Z,19.07
2018-10-07T01:35:29.058Z,20.10
2018-10-07T01:37:57.284Z,19.77
2018-10-07T01:40:25.553Z,19.70
2018-10-07T01:42:53.867Z,22.07
2018-10-07T01:45:22.085Z,20.57
2018-10-07T01:47:50.387Z,21.33
2018-10-07T01:50:18.703Z,21.03
2018-10-07T01:52:47.155Z,21.43
2018-10-07T01:55:15.473Z,21.00
2018-10-07T01:57:43.853Z,19.77
2018-10-07T02:00:12.088Z,17.57
2018-10-07T02:02:40.368Z,18.93
2018-10-07T02:05:08.807Z,19.07
2018-10-07T02:07:37.012Z,19.30
2018-10-07T02:10:05.319Z,18.77
2018-10-07T02:12:33.670Z,19.10
2018-10-07T02:15:01.950Z,19.87
2018-10-07T02:17:30.260Z,20.10
2018-10-07T02:19:58.582Z,20.80
2018-10-07T02:22:26.865Z,19.60
2018-10-07T02:24:55.150Z,20.27
2018-10-07T02:27:23.464Z,19.73
2018-10-07T02:29:51.787Z,24.20
2018-10-07T02:32:20.091Z,27.57
2018-10-07T02:34:48.365Z,42.87
2018-10-07T02:37:16.600Z,44.43
2018-10-07T02:39:44.925Z,26.00
2018-10-07T02:42:13.155Z,23.57
2018-10-07T02:44:41.355Z,21.90
2018-10-07T02:47:09.648Z,21.37
2018-10-07T02:49:37.996Z,21.17
2018-10-07T02:52:06.717Z,20.77
2018-10-07T02:54:35.003Z,21.67
2018-10-07T02:57:03.335Z,19.53
2018-10-07T02:59:31.639Z,19.93
2018-10-07T03:01:59.938Z,19.00
2018-10-07T03:04:28.269Z,19.73
2018-10-07T03:06:56.573Z,20.30
2018-10-07T03:09:24.835Z,19.70
2018-10-07T03:11:53.156Z,19.43
2018-10-07T03:14:21.469Z,19.17
2018-10-07T03:16:49.725Z,17.87
2018-10-07T03:19:18.123Z,19.03
2018-10-07T03:21:46.420Z,18.30
2018-10-07T03:24:14.652Z,21.13
2018-10-07T03:26:42.897Z,22.47
2018-10-07T03:29:11.108Z,24.40
2018-10-07T03:31:39.350Z,44.50
2018-10-07T03:34:08.288Z,20.80
2018-10-07T03:36:36.532Z,23.47
2018-10-07T03:39:06.216Z,25.33
2018-10-07T03:41:34.546Z,25.03
2018-10-07T03:44:02.862Z,24.87
2018-10-07T03:46:31.170Z,24.33
2018-10-07T03:48:59.429Z,24.30
2018-10-07T03:51:27.642Z,23.17
2018-10-07T03:53:56.007Z,26.73
2018-10-07T03:56:24.326Z,26.13
2018-10-07T03:58:52.528Z,23.87
2018-10-07T04:01:20.844Z,21.40
2018-10-07T04:03:49.164Z,23.37
2018-10-07T04:06:17.373Z,23.63
2018-10-07T04:08:45.573Z,23.17
2018-10-07T04:11:13.841Z,20.43
2018-10-07T04:13:42.117Z,21.90
2018-10-07T04:16:10.434Z,21.23
2018-10-07T04:18:39.036Z,19.53
2018-10-07T04:21:07.236Z,21.53
2018-10-07T04:23:35.445Z,22.00
2018-10-07T04:26:03.827Z,19.07
2018-10-07T04:28:32.144Z,19.70
2018-10-07T04:31:00.448Z,18.37
2018-10-07T04:33:29.364Z,18.93
2018-10-07T04:35:57.698Z,19.67
2018-10-07T04:38:26.024Z,21.20
2018-10-07T04:40:54.396Z,21.27
2018-10-07T04:43:22.725Z,19.40
2018-10-07T04:45:51.070Z,19.10
2018-10-07T04:48:19.423Z,20.27
2018-10-07T04:50:48.126Z,18.87
2018-10-07T04:53:16.329Z,19.20
2018-10-07T04:55:44.631Z,18.47
2018-10-07T04:58:13.104Z,18.53
2018-10-07T05:00:41.304Z,19.77
2018-10-07T05:03:09.622Z,20.00
2018-10-07T05:05:38.001Z,20.67
2018-10-07T05:08:06.887Z,21.93
2018-10-07T05:10:40.278Z,20.17
2018-10-07T05:13:09.148Z,21.50
2018-10-07T05:15:45.354Z,20.40
2018-10-07T05:18:13.746Z,20.07
2018-10-07T05:20:42.030Z,22.37
2018-10-07T05:23:10.316Z,21.23
2018-10-07T05:25:38.607Z,25.50
2018-10-07T05:28:06.789Z,21.10
2018-10-07T05:30:35.364Z,21.27
2018-10-07T05:33:03.625Z,21.70
2018-10-07T05:35:31.826Z,21.53
2018-10-07T05:38:00.599Z,20.03
2018-10-07T05:40:28.940Z,19.13
2018-10-07T05:42:57.674Z,23.57
2018-10-07T05:45:26.386Z,23.50
2018-10-07T05:47:55.456Z,25.33
2018-10-07T05:50:24.167Z,23.13
2018-10-07T05:52:52.930Z,23.47
2018-10-07T05:55:21.672Z,20.73
2018-10-07T05:57:51.572Z,18.73
2018-10-07T06:00:20.595Z,21.80
2018-10-07T06:02:49.466Z,24.03
2018-10-07T06:05:17.665Z,21.00
2018-10-07T06:07:45.890Z,21.57
2018-10-07T06:10:14.176Z,24.50
2018-10-07T06:12:42.416Z,24.30
2018-10-07T06:15:15.017Z,23.87
2018-10-07T06:17:43.286Z,24.60
2018-10-07T06:20:11.914Z,24.53
2018-10-07T06:22:40.212Z,23.33
2018-10-07T06:25:09.461Z,22.63
2018-10-07T06:27:37.756Z,23.13
2018-10-07T06:30:06.014Z,23.80
2018-10-07T06:32:34.320Z,21.37
2018-10-07T06:35:02.648Z,22.23
2018-10-07T06:37:30.881Z,22.63
2018-10-07T06:39:59.269Z,23.30
2018-10-07T06:42:27.684Z,19.93
2018-10-07T06:44:56.048Z,21.17
2018-10-07T06:47:24.335Z,21.23
2018-10-07T06:49:52.655Z,19.87
2018-10-07T06:52:20.907Z,19.07
2018-10-07T06:54:49.175Z,19.37
2018-10-07T06:57:17.615Z,19.70
2018-10-07T06:59:46.017Z,17.60
2018-10-07T07:02:14.149Z,18.77
2018-10-07T07:04:42.725Z,20.87
2018-10-07T07:07:11.015Z,19.27
2018-10-07T07:09:39.306Z,19.00
2018-10-07T07:12:07.652Z,19.27
2018-10-07T07:14:35.919Z,17.93
2018-10-07T07:17:04.235Z,17.43
2018-10-07T07:19:32.568Z,19.33
2018-10-07T07:22:01.025Z,17.90
2018-10-07T07:24:29.425Z,20.03
2018-10-07T07:26:57.838Z,19.73
2018-10-07T07:29:26.308Z,21.07
2018-10-07T07:31:54.594Z,17.57
2018-10-07T07:34:22.977Z,19.00
2018-10-07T07:36:51.670Z,17.83
2018-10-07T07:39:20.092Z,19.30
2018-10-07T07:41:48.417Z,17.03
2018-10-07T07:44:16.938Z,17.90
2018-10-07T07:46:45.545Z,17.87
2018-10-07T07:49:15.145Z,18.53
2018-10-07T07:51:43.496Z,18.17
2018-10-07T07:54:12.504Z,19.03
2018-10-07T07:56:40.718Z,17.57
2018-10-07T07:59:08.981Z,19.03
2018-10-07T08:01:37.249Z,17.60
2018-10-07T08:04:05.821Z,17.50
2018-10-07T08:06:34.227Z,15.50
2018-10-07T08:09:02.452Z,16.43
2018-10-07T08:11:30.803Z,15.70
2018-10-07T08:13:59.101Z,15.23
2018-10-07T08:16:27.429Z,15.30
2018-10-07T08:18:55.668Z,15.20
2018-10-07T08:21:26.329Z,14.17
2018-10-07T08:23:54.765Z,15.20
2018-10-07T08:26:23.053Z,14.97
2018-10-07T08:28:51.376Z,15.10
2018-10-07T08:31:20.680Z,15.57
2018-10-07T08:33:49.043Z,13.77
2018-10-07T08:36:18.050Z,15.43
2018-10-07T08:38:46.329Z,14.47
2018-10-07T08:41:15.402Z,14.57
2018-10-07T08:43:43.943Z,13.73
2018-10-07T08:46:12.298Z,14.30
2018-10-07T08:48:40.635Z,14.23
2018-10-07T08:51:08.918Z,13.43
2018-10-07T08:53:37.312Z,13.40
2018-10-07T08:56:05.603Z,14.00
2018-10-07T08:58:34.013Z,13.60
2018-10-07T09:01:02.340Z,14.07
2018-10-07T09:03:30.642Z,13.40
2018-10-07T09:05:58.971Z,14.37
2018-10-07T09:08:27.241Z,14.07
2018-10-07T09:10:55.516Z,14.77
2018-10-07T09:13:23.889Z,14.17
2018-10-07T09:15:52.158Z,14.40
2018-10-07T09:18:22.861Z,14.77
2018-10-07T09:20:51.329Z,13.13
2018-10-07T09:23:19.706Z,14.80
2018-10-07T09:25:48.095Z,13.37
2018-10-07T09:28:16.346Z,16.03
2018-10-07T09:30:48.175Z,15.17
2018-10-07T09:33:16.517Z,15.00
2018-10-07T09:35:44.735Z,13.80
2018-10-07T09:38:12.940Z,14.93
2018-10-07T09:40:41.258Z,13.80
2018-10-07T09:43:09.598Z,14.30
2018-10-07T09:45:37.959Z,13.43
2018-10-07T09:48:06.226Z,12.40
2018-10-07T09:50:35.374Z,13.77
2018-10-07T09:53:03.737Z,12.87
2018-10-07T09:55:32.031Z,13.17
2018-10-07T09:58:00.551Z,12.40
2018-10-07T10:00:33.204Z,11.87
2018-10-07T10:03:01.562Z,13.00
2018-10-07T10:05:29.792Z,10.83
2018-10-07T10:07:58.069Z,11.00
2018-10-07T10:10:26.641Z,11.97
2018-10-07T10:12:54.880Z,11.97
2018-10-07T10:15:23.143Z,11.30
2018-10-07T10:17:54.703Z,11.43
2018-10-07T10:20:24.536Z,11.70
2018-10-07T10:22:57.114Z,10.77
2018-10-07T10:25:29.793Z,9.73
2018-10-07T10:28:02.466Z,10.97
2018-10-07T10:30:32.147Z,11.37
2018-10-07T10:33:01.185Z,11.43
2018-10-07T10:35:35.146Z,11.93
2018-10-07T10:38:07.848Z,11.80
2018-10-07T10:40:37.437Z,9.53
2018-10-07T10:43:09.308Z,10.30
2018-10-07T10:45:40.366Z,10.63
2018-10-07T10:48:13.045Z,9.77
2018-10-07T10:50:42.734Z,10.63
2018-10-07T10:53:15.328Z,9.97
2018-10-07T10:55:48.042Z,10.40
2018-10-07T10:58:20.658Z,10.13
2018-10-07T11:00:53.957Z,10.67
2018-10-07T11:03:26.534Z,9.67
2018-10-07T11:05:56.645Z,10.40
2018-10-07T11:08:29.327Z,9.07
2018-10-07T11:13:36.211Z,10.33
2018-10-07T11:16:08.939Z,10.07
2018-10-07T11:18:41.714Z,10.00
2018-10-07T11:21:14.479Z,10.50
2018-10-07T11:23:47.114Z,10.07
2018-10-07T11:26:20.355Z,9.70
2018-10-07T11:28:49.517Z,9.83
2018-10-07T11:31:22.162Z,9.77
2018-10-07T11:33:54.942Z,8.23
2018-10-07T11:36:28.049Z,9.27
2018-10-07T11:38:59.043Z,9.03
2018-10-07T11:41:27.708Z,10.10
2018-10-07T11:43:58.554Z,10.00
2018-10-07T11:46:31.127Z,9.17
2018-10-07T11:49:03.793Z,8.87
2018-10-07T11:51:37.062Z,8.93
2018-10-07T11:54:09.200Z,8.17
2018-10-07T11:56:38.131Z,8.17
2018-10-07T11:59:06.737Z,8.87
2018-10-07T12:01:35.338Z,8.07
2018-10-07T12:04:03.867Z,8.43
2018-10-07T12:06:32.110Z,8.63
2018-10-07T12:09:00.328Z,8.17
2018-10-07T12:11:28.624Z,8.50
2018-10-07T12:13:56.834Z,8.13
2018-10-07T12:16:25.221Z,8.23
2018-10-07T12:18:53.515Z,8.77
2018-10-07T12:21:21.719Z,8.20
2018-10-07T12:23:49.934Z,8.20
2018-10-07T12:26:18.450Z,8.53
2018-10-07T12:28:46.822Z,6.70
2018-10-07T12:31:15.081Z,7.10
2018-10-07T12:33:43.290Z,7.67
2018-10-07T12:36:14.783Z,7.83
2018-10-07T12:38:43.137Z,8.40
2018-10-07T12:41:11.436Z,8.70
2018-10-07T12:43:40.425Z,9.37
2018-10-07T12:46:08.748Z,9.03
2018-10-07T12:48:37.000Z,8.83
2018-10-07T12:51:05.558Z,9.40
2018-10-07T12:53:37.636Z,10.70
2018-10-07T12:56:06.009Z,9.47
2018-10-07T12:58:34.359Z,9.80
2018-10-07T13:01:02.717Z,10.50
2018-10-07T13:03:30.958Z,9.50
2018-10-07T13:05:59.245Z,9.43
2018-10-07T13:08:27.464Z,9.60
2018-10-07T13:10:55.806Z,9.53
2018-10-07T13:13:24.123Z,9.07
2018-10-07T13:15:52.318Z,8.00
2018-10-07T13:18:20.783Z,8.13
2018-10-07T13:20:49.084Z,7.00
2018-10-07T13:23:17.331Z,6.43
2018-10-07T13:25:45.927Z,6.57
2018-10-07T13:28:14.114Z,5.70
2018-10-07T13:30:44.130Z,5.70
2018-10-07T13:33:12.490Z,5.77
2018-10-07T13:35:40.998Z,5.97
2018-10-07T13:38:09.225Z,5.60
2018-10-07T13:40:37.482Z,6.10
2018-10-07T13:43:05.852Z,6.00
2018-10-07T13:45:34.061Z,5.70
2018-10-07T13:48:02.452Z,6.07
2018-10-07T13:50:30.755Z,6.47
2018-10-07T13:52:59.012Z,7.00
2018-10-07T13:55:27.462Z,6.83
2018-10-07T13:57:55.956Z,6.50
2018-10-07T14:00:24.132Z,6.80
2018-10-07T14:02:52.389Z,7.00
2018-10-07T14:05:20.776Z,7.57
2018-10-07T14:07:48.971Z,6.90
2018-10-07T14:10:17.334Z,7.33
2018-10-07T14:12:45.571Z,7.43
2018-10-07T14:15:13.838Z,6.67
2018-10-07T14:17:42.095Z,7.27
2018-10-07T14:20:10.404Z,8.30
2018-10-07T14:22:38.666Z,6.93
2018-10-07T14:25:07.045Z,7.03
2018-10-07T14:27:35.305Z,7.77
2018-10-07T14:30:03.605Z,7.43
2018-10-07T14:32:31.844Z,7.27
2018-10-07T14:35:00.184Z,7.30
2018-10-07T14:37:28.545Z,7.53
2018-10-07T14:39:56.827Z,7.90
2018-10-07T14:42:25.256Z,9.03
2018-10-07T14:44:53.590Z,9.90
2018-10-07T14:47:21.985Z,10.53
2018-10-07T14:49:50.226Z,12.43
2018-10-07T14:52:18.505Z,11.93
2018-10-07T14:54:46.734Z,13.13
2018-10-07T14:57:15.031Z,12.87
2018-10-07T14:59:43.320Z,12.63
2018-10-07T15:02:11.729Z,15.17
2018-10-07T15:04:40.058Z,16.50
2018-10-07T15:07:08.357Z,16.13
2018-10-07T15:09:36.708Z,15.37
2018-10-07T15:12:04.960Z,17.53
2018-10-07T15:14:33.236Z,17.17
2018-10-07T15:17:04.663Z,16.47
2018-10-07T15:19:33.109Z,17.80
2018-10-07T15:22:01.500Z,16.67
2018-10-07T15:24:29.728Z,16.17
2018-10-07T15:26:58.030Z,14.97
2018-10-07T15:29:26.395Z,15.77
2018-10-07T15:31:54.845Z,14.70
2018-10-07T15:34:23.144Z,14.50
2018-10-07T15:36:51.400Z,13.20
2018-10-07T15:39:20.170Z,13.43
2018-10-07T15:41:48.459Z,13.17
2018-10-07T15:44:16.776Z,13.93
2018-10-07T15:46:44.976Z,12.97
2018-10-07T15:49:13.882Z,12.90
2018-10-07T15:51:42.126Z,13.03
2018-10-07T15:54:10.456Z,12.43
2018-10-07T15:56:38.824Z,10.30
2018-10-07T15:59:07.090Z,9.83
2018-10-07T16:01:35.325Z,7.90
2018-10-07T16:04:06.710Z,10.40
2018-10-07T16:06:35.024Z,7.17
2018-10-07T16:09:04.727Z,6.60
2018-10-07T16:11:33.015Z,6.20
2018-10-07T16:14:01.366Z,6.30
2018-10-07T16:16:30.950Z,6.20
2018-10-07T16:18:59.320Z,6.70
2018-10-07T16:21:27.602Z,7.40
2018-10-07T16:23:56.133Z,5.33
2018-10-07T16:26:24.626Z,5.40
2018-10-07T16:28:52.851Z,5.00
2018-10-07T16:31:21.084Z,5.20
2018-10-07T16:33:49.707Z,5.43
2018-10-07T16:36:17.927Z,11.17
2018-10-07T16:38:46.163Z,5.43
2018-10-07T16:41:14.705Z,5.10
2018-10-07T16:43:46.065Z,6.17
2018-10-07T16:46:14.480Z,5.70
2018-10-07T16:48:42.701Z,6.43
2018-10-07T16:51:11.115Z,7.33
2018-10-07T16:53:39.553Z,10.63
2018-10-07T16:56:07.898Z,12.13
2018-10-07T16:58:36.455Z,10.33
2018-10-07T17:01:04.719Z,6.80
2018-10-07T17:03:33.110Z,6.07
2018-10-07T17:06:01.839Z,5.57
2018-10-07T17:08:33.748Z,6.50
2018-10-07T17:11:05.692Z,5.63
2018-10-07T17:13:34.162Z,8.13
2018-10-07T17:16:02.477Z,7.33
2018-10-07T17:18:30.722Z,7.10
2018-10-07T17:20:59.131Z,4.67
2018-10-07T17:23:28.182Z,4.13
2018-10-07T17:25:56.641Z,3.67
2018-10-07T17:28:25.268Z,4.23
2018-10-07T17:30:55.608Z,3.60
2018-10-07T17:33:26.279Z,3.67
2018-10-07T17:35:56.456Z,3.50
2018-10-07T17:38:24.968Z,3.60
2018-10-07T17:40:53.360Z,3.17
2018-10-07T17:43:21.788Z,2.90
2018-10-07T17:45:50.461Z,3.03
2018-10-07T17:48:19.061Z,3.10
2018-10-07T17:50:47.339Z,3.07
2018-10-07T17:53:18.948Z,2.97
2018-10-07T17:55:47.449Z,13.33
2018-10-07T17:58:15.911Z,2.73
2018-10-07T18:00:47.357Z,3.00
2018-10-07T18:03:15.740Z,3.00
2018-10-07T18:05:44.187Z,3.07
2018-10-07T18:08:12.509Z,3.67
2018-10-07T18:10:40.896Z,3.40
2018-10-07T18:13:09.361Z,3.10
2018-10-07T18:15:37.794Z,3.57
2018-10-07T18:18:08.772Z,4.10
2018-10-07T18:20:37.225Z,3.93
2018-10-07T18:23:05.653Z,3.47
2018-10-07T18:25:33.971Z,3.83
2018-10-07T18:28:02.544Z,4.13
2018-10-07T18:30:31.004Z,3.60
2018-10-07T18:32:59.336Z,3.10
2018-10-07T18:35:27.902Z,2.73
2018-10-07T18:37:56.279Z,3.43
2018-10-07T18:40:24.617Z,3.40
2018-10-07T18:42:53.081Z,7.07
2018-10-07T18:45:24.254Z,4.43
2018-10-07T18:47:53.004Z,3.13
2018-10-07T18:50:21.364Z,3.50
2018-10-07T18:52:49.903Z,3.40
2018-10-07T18:55:21.418Z,3.00
2018-10-07T18:57:52.036Z,3.80
2018-10-07T19:00:20.489Z,3.50
2018-10-07T19:02:49.566Z,3.67
2018-10-07T19:05:17.818Z,3.30
2018-10-07T19:07:46.314Z,3.43
2018-10-07T19:10:17.645Z,4.27
2018-10-07T19:12:49.028Z,4.67
2018-10-07T19:15:19.369Z,5.40
2018-10-07T19:17:50.816Z,4.67
2018-10-07T19:20:19.505Z,3.93
2018-10-07T19:22:47.818Z,5.00
2018-10-07T19:25:16.099Z,4.00
2018-10-07T19:27:44.465Z,3.50
2018-10-07T19:30:12.848Z,3.20
2018-10-07T19:32:41.292Z,2.97
2018-10-07T19:35:11.257Z,2.80
2018-10-07T19:37:39.536Z,2.77
2018-10-07T19:40:08.953Z,2.80
2018-10-07T19:42:37.269Z,2.80
2018-10-07T19:45:05.724Z,2.70
2018-10-07T19:47:33.870Z,2.53
2018-10-07T19:50:02.325Z,2.70
2018-10-07T19:52:31.166Z,3.00
2018-10-07T19:54:59.837Z,2.80
2018-10-07T19:57:28.321Z,3.03
2018-10-07T19:59:56.862Z,3.40
2018-10-07T20:02:25.183Z,26.13
2018-10-07T20:04:53.433Z,3.60
2018-10-07T20:07:21.699Z,2.87
2018-10-07T20:09:49.922Z,2.87
2018-10-07T20:12:18.167Z,3.10
2018-10-07T20:14:46.465Z,2.40
2018-10-07T20:17:14.738Z,3.77
2018-10-07T20:19:42.982Z,2.77
2018-10-07T20:22:12.473Z,2.70
2018-10-07T20:24:40.764Z,3.00
2018-10-07T20:27:09.373Z,2.60
2018-10-07T20:29:37.596Z,2.70
2018-10-07T20:32:05.817Z,2.83
2018-10-07T20:34:36.022Z,3.20
2018-10-07T20:37:05.289Z,4.30
2018-10-07T20:39:35.410Z,5.90
2018-10-07T20:42:04.306Z,6.37
2018-10-07T20:44:33.993Z,7.80
2018-10-07T20:47:03.475Z,7.57
2018-10-07T20:49:32.188Z,6.77
2018-10-07T20:52:00.492Z,6.57
2018-10-07T20:54:31.959Z,4.73
2018-10-07T20:57:00.480Z,3.53
2018-10-07T20:59:28.702Z,3.40
2018-10-07T21:01:56.959Z,3.60
2018-10-07T21:04:25.216Z,3.20
2018-10-07T21:06:53.477Z,3.70
2018-10-07T21:09:21.844Z,3.00
2018-10-07T21:11:50.148Z,3.80
2018-10-07T21:14:18.841Z,5.63
2018-10-07T21:16:50.424Z,5.50
2018-10-07T21:19:18.700Z,7.17
2018-10-07T21:21:47.006Z,7.17
2018-10-07T21:24:15.284Z,9.20
2018-10-07T21:26:43.648Z,9.80
2018-10-07T21:29:11.911Z,10.10
2018-10-07T21:31:40.151Z,9.00
2018-10-07T21:34:08.443Z,7.20
2018-10-07T21:36:36.723Z,7.63
2018-10-07T21:39:06.477Z,5.50
2018-10-07T21:41:34.869Z,5.90
2018-10-07T21:44:03.083Z,5.67
2018-10-07T21:46:32.478Z,4.90
2018-10-07T21:49:01.428Z,5.23
2018-10-07T21:51:29.663Z,5.27
2018-10-07T21:53:57.894Z,5.07
2018-10-07T21:56:26.153Z,5.27
2018-10-07T21:58:54.390Z,6.03
2018-10-07T22:01:22.757Z,6.17
2018-10-07T22:03:50.968Z,6.23
2018-10-07T22:06:19.245Z,5.57
2018-10-07T22:08:47.516Z,5.93
2018-10-07T22:11:15.746Z,7.67
2018-10-07T22:13:43.929Z,8.87
2018-10-07T22:16:13.248Z,7.60
2018-10-07T22:18:41.646Z,17.90
2018-10-07T22:21:10.159Z,8.77
2018-10-07T22:23:38.477Z,7.00
2018-10-07T22:26:06.763Z,7.00
2018-10-07T22:28:34.953Z,7.87
2018-10-07T22:31:03.292Z,7.97
2018-10-07T22:33:31.511Z,9.83
2018-10-07T22:35:59.775Z,7.07
2018-10-07T22:38:28.005Z,6.07
2018-10-07T22:40:56.352Z,6.27
2018-10-07T22:43:24.644Z,6.77
2018-10-07T22:45:52.897Z,6.07
2018-10-07T22:48:21.102Z,5.80
2018-10-07T22:50:49.308Z,8.83
2018-10-07T22:53:17.627Z,4.70
2018-10-07T22:55:45.803Z,5.00
2018-10-07T22:58:13.974Z,4.87
2018-10-07T23:00:42.433Z,4.37
2018-10-07T23:03:10.828Z,4.90
2018-10-07T23:05:39.042Z,4.90
2018-10-07T23:08:07.278Z,4.77
2018-10-07T23:10:35.493Z,4.87
2018-10-07T23:13:03.708Z,4.90
2018-10-07T23:15:31.955Z,5.07
2018-10-07T23:18:00.158Z,4.40
2018-10-07T23:20:28.355Z,4.90
2018-10-07T23:22:56.597Z,5.30
2018-10-07T23:25:25.103Z,5.30
2018-10-07T23:27:53.417Z,4.33
2018-10-07T23:30:22.687Z,4.73
2018-10-07T23:32:51.054Z,5.83
2018-10-07T23:35:19.364Z,6.03
2018-10-07T23:37:47.663Z,4.53
2018-10-07T23:40:15.867Z,7.40
2018-10-07T23:42:44.085Z,11.87
2018-10-07T23:45:12.327Z,5.80
2018-10-07T23:47:40.639Z,5.23
2018-10-07T23:50:08.853Z,4.23
2018-10-07T23:52:37.092Z,4.23
2018-10-07T23:55:05.333Z,5.47
2018-10-07T23:57:33.549Z,10.50
